Etusivu
METAR-TAF:

METAR-TAF

Lentoasemat :

Lontoo-Heathrow, Englanti

Heathrow’n lentoasema

Leveyspiiri: 51-29N, Pituuspiiri: 000-27W, korkeus merenpinnasta: 24 m

Tämänhetkinen sää

Tämä raportti tehtiin 23 minuuttia sitten, kello 09.50 UTC
Tuuli 9 kn kaakosta
Lämpötila 19°C
Kosteus 64%
Ilmanpaine 1020 hPa
Näkyvyys 10 km tai enemmän

METAR: EGLL 240950Z AUTO 13009KT 9999 NCD 19/12 Q1020 NOSIG

Aika: 11:13 (10:13 UTC)

Sääennuste

Tämä raportti tehtiin 5 tuntia ja 20 minuuttia sitten, kello 04.53 UTC
Ennuste voimassa 24. päivästä klo 06 UTC - 25. päivään klo 12 UTC
Tuuli 8 kn kaakosta
Näkyvyys: 7000 m
Muutamia pilviä 4500 ft:n korkeudessa
Tulossa
24. päivästä klo 06 UTC - 24. päivään klo 09 UTC
Näkyvyys 10 km tai enemmän
Todennäköisyys 40% :
Ajoittain
24. päivästä klo 20 UTC - 25. päivään klo 09 UTC
Näkyvyys: 7000 m
sadetta

TAF: EGLL 240453Z 2406/2512 13008KT 7000 FEW045 BECMG 2406/2409 9999 PROB40 TEMPO 2420/2509 7000 RA

Säähavainnot ja -ennusteet yli 4000 lentoasemalta (METAR- ja TAF-raportit).

Käytössä olevat sääasemat on merkitty karttaan keltaisilla ja punaisilla pisteillä.

Aseta hiiri pisteen päälle nähdäksesi sääaseman nimen.

Klikkaa sitten nähdäksesi säähavainnot ja -ennusteet.

Kartan vaihtaminen: klikkaa mustalla rastilla varustettuja vihreitä pisteitä, niin voit zoomata sisään; viivalla varustettua vihreää pistettä, niin voit zoomata ulos tai vihreitä nuolia, niin pääset viereisille kartoille.


METAR-TAF: